sensor_id;sensor_type;location;lat;lon;timestamp;temperature;humidity
57664;DHT22;43493;53.098;6.064;2023-02-28T00:01:10;4.90;99.90
57664;DHT22;43493;53.098;6.064;2023-02-28T00:03:36;4.90;99.90
57664;DHT22;43493;53.098;6.064;2023-02-28T00:06:06;5.00;99.90
57664;DHT22;43493;53.098;6.064;2023-02-28T00:08:32;5.00;99.90
57664;DHT22;43493;53.098;6.064;2023-02-28T00:11:02;5.00;99.90
57664;DHT22;43493;53.098;6.064;2023-02-28T00:13:28;5.00;99.90
57664;DHT22;43493;53.098;6.064;2023-02-28T00:16:01;5.10;99.90
57664;DHT22;43493;53.098;6.064;2023-02-28T00:18:27;5.00;99.90
57664;DHT22;43493;53.098;6.064;2023-02-28T00:20:53;5.00;99.90
57664;DHT22;43493;53.098;6.064;2023-02-28T00:23:19;5.10;99.90
57664;DHT22;43493;53.098;6.064;2023-02-28T00:25:45;5.00;99.90
57664;DHT22;43493;53.098;6.064;2023-02-28T00:28:10;5.10;99.90
57664;DHT22;43493;53.098;6.064;2023-02-28T00:30:36;5.10;99.90
57664;DHT22;43493;53.098;6.064;2023-02-28T00:33:02;5.10;99.90
57664;DHT22;43493;53.098;6.064;2023-02-28T00:35:27;5.10;99.90
57664;DHT22;43493;53.098;6.064;2023-02-28T00:37:53;5.00;99.90
57664;DHT22;43493;53.098;6.064;2023-02-28T00:40:19;5.00;99.90
57664;DHT22;43493;53.098;6.064;2023-02-28T00:42:45;5.00;99.90
57664;DHT22;43493;53.098;6.064;2023-02-28T00:45:10;5.00;99.90
57664;DHT22;43493;53.098;6.064;2023-02-28T00:47:36;5.00;99.90
57664;DHT22;43493;53.098;6.064;2023-02-28T00:50:03;5.00;99.90
57664;DHT22;43493;53.098;6.064;2023-02-28T00:52:29;5.00;99.90
57664;DHT22;43493;53.098;6.064;2023-02-28T00:54:55;5.00;99.90
57664;DHT22;43493;53.098;6.064;2023-02-28T00:57:21;4.90;99.90
57664;DHT22;43493;53.098;6.064;2023-02-28T00:59:46;4.90;99.90
57664;DHT22;43493;53.098;6.064;2023-02-28T01:02:12;5.00;99.90
57664;DHT22;43493;53.098;6.064;2023-02-28T01:04:38;5.00;99.90
57664;DHT22;43493;53.098;6.064;2023-02-28T01:07:04;5.10;99.90
57664;DHT22;43493;53.098;6.064;2023-02-28T01:09:30;5.10;99.90
57664;DHT22;43493;53.098;6.064;2023-02-28T01:11:56;5.10;99.90
57664;DHT22;43493;53.098;6.064;2023-02-28T01:14:21;5.10;99.90
57664;DHT22;43493;53.098;6.064;2023-02-28T01:16:47;5.10;99.90
57664;DHT22;43493;53.098;6.064;2023-02-28T01:19:13;5.10;99.90
57664;DHT22;43493;53.098;6.064;2023-02-28T01:21:39;5.10;99.90
57664;DHT22;43493;53.098;6.064;2023-02-28T01:24:05;5.10;99.90
57664;DHT22;43493;53.098;6.064;2023-02-28T01:26:31;5.10;99.90
57664;DHT22;43493;53.098;6.064;2023-02-28T01:28:57;5.10;99.90
57664;DHT22;43493;53.098;6.064;2023-02-28T01:31:24;5.20;99.90
57664;DHT22;43493;53.098;6.064;2023-02-28T01:33:50;5.10;99.90
57664;DHT22;43493;53.098;6.064;2023-02-28T01:36:22;5.10;99.90
57664;DHT22;43493;53.098;6.064;2023-02-28T01:38:48;5.10;99.90
57664;DHT22;43493;53.098;6.064;2023-02-28T01:41:19;5.10;99.90
57664;DHT22;43493;53.098;6.064;2023-02-28T01:46:12;5.00;99.90
57664;DHT22;43493;53.098;6.064;2023-02-28T01:48:50;5.10;99.90
57664;DHT22;43493;53.098;6.064;2023-02-28T01:51:29;5.10;99.90
57664;DHT22;43493;53.098;6.064;2023-02-28T01:53:59;5.00;99.90
57664;DHT22;43493;53.098;6.064;2023-02-28T01:56:30;5.10;99.90
57664;DHT22;43493;53.098;6.064;2023-02-28T01:58:58;5.10;99.90
57664;DHT22;43493;53.098;6.064;2023-02-28T02:01:26;5.10;99.90
57664;DHT22;43493;53.098;6.064;2023-02-28T02:03:59;5.10;99.90
57664;DHT22;43493;53.098;6.064;2023-02-28T02:06:36;5.10;99.90
57664;DHT22;43493;53.098;6.064;2023-02-28T02:09:02;5.10;99.90
57664;DHT22;43493;53.098;6.064;2023-02-28T02:11:29;5.10;99.90
57664;DHT22;43493;53.098;6.064;2023-02-28T02:28:02;5.20;99.90
57664;DHT22;43493;53.098;6.064;2023-02-28T02:36:24;5.20;99.90
57664;DHT22;43493;53.098;6.064;2023-02-28T02:41:35;5.20;99.90
57664;DHT22;43493;53.098;6.064;2023-02-28T02:44:28;5.20;99.90
57664;DHT22;43493;53.098;6.064;2023-02-28T02:47:12;5.20;99.90
57664;DHT22;43493;53.098;6.064;2023-02-28T02:49:43;5.20;99.90
57664;DHT22;43493;53.098;6.064;2023-02-28T02:52:14;5.20;99.90
57664;DHT22;43493;53.098;6.064;2023-02-28T02:54:45;5.20;99.90
57664;DHT22;43493;53.098;6.064;2023-02-28T02:57:25;5.20;99.90
57664;DHT22;43493;53.098;6.064;2023-02-28T02:59:56;5.20;99.90
57664;DHT22;43493;53.098;6.064;2023-02-28T03:02:23;5.30;99.90
57664;DHT22;43493;53.098;6.064;2023-02-28T03:04:59;5.30;99.90
57664;DHT22;43493;53.098;6.064;2023-02-28T03:07:26;5.30;99.90
57664;DHT22;43493;53.098;6.064;2023-02-28T03:09:53;5.20;99.90
57664;DHT22;43493;53.098;6.064;2023-02-28T03:12:20;5.20;99.90
57664;DHT22;43493;53.098;6.064;2023-02-28T03:15:26;5.20;99.90
57664;DHT22;43493;53.098;6.064;2023-02-28T03:18:09;5.20;99.90
57664;DHT22;43493;53.098;6.064;2023-02-28T03:23:48;5.20;99.90
57664;DHT22;43493;53.098;6.064;2023-02-28T03:26:23;5.20;99.90
57664;DHT22;43493;53.098;6.064;2023-02-28T03:34:06;5.20;99.90
57664;DHT22;43493;53.098;6.064;2023-02-28T03:36:41;5.20;99.90
57664;DHT22;43493;53.098;6.064;2023-02-28T03:39:16;5.30;99.90
57664;DHT22;43493;53.098;6.064;2023-02-28T03:41:49;5.30;99.90
57664;DHT22;43493;53.098;6.064;2023-02-28T03:44:32;5.20;99.90
57664;DHT22;43493;53.098;6.064;2023-02-28T03:47:21;5.20;99.90
57664;DHT22;43493;53.098;6.064;2023-02-28T03:52:40;5.20;99.90
57664;DHT22;43493;53.098;6.064;2023-02-28T03:55:11;5.20;99.90
57664;DHT22;43493;53.098;6.064;2023-02-28T03:57:53;5.20;99.90
57664;DHT22;43493;53.098;6.064;2023-02-28T04:00:28;5.20;99.90
57664;DHT22;43493;53.098;6.064;2023-02-28T04:02:56;5.20;99.90
57664;DHT22;43493;53.098;6.064;2023-02-28T04:05:22;5.20;99.90
57664;DHT22;43493;53.098;6.064;2023-02-28T04:07:48;5.20;99.90
57664;DHT22;43493;53.098;6.064;2023-02-28T04:10:15;5.10;99.90
57664;DHT22;43493;53.098;6.064;2023-02-28T04:12:41;5.20;99.90
57664;DHT22;43493;53.098;6.064;2023-02-28T04:15:07;5.20;99.90
57664;DHT22;43493;53.098;6.064;2023-02-28T04:17:33;5.10;99.90
57664;DHT22;43493;53.098;6.064;2023-02-28T04:19:59;5.20;99.90
57664;DHT22;43493;53.098;6.064;2023-02-28T04:22:25;5.10;99.90
57664;DHT22;43493;53.098;6.064;2023-02-28T04:24:53;5.10;99.90
57664;DHT22;43493;53.098;6.064;2023-02-28T04:27:21;5.10;99.90
57664;DHT22;43493;53.098;6.064;2023-02-28T04:29:46;5.10;99.90
57664;DHT22;43493;53.098;6.064;2023-02-28T04:32:12;5.10;99.90
57664;DHT22;43493;53.098;6.064;2023-02-28T04:34:38;5.10;99.90
57664;DHT22;43493;53.098;6.064;2023-02-28T04:37:05;5.00;99.90
57664;DHT22;43493;53.098;6.064;2023-02-28T04:39:35;5.00;99.90
57664;DHT22;43493;53.098;6.064;2023-02-28T04:42:01;4.90;99.90
57664;DHT22;43493;53.098;6.064;2023-02-28T04:44:27;4.90;99.90
57664;DHT22;43493;53.098;6.064;2023-02-28T04:46:52;4.90;99.90
57664;DHT22;43493;53.098;6.064;2023-02-28T04:49:18;4.90;99.90
57664;DHT22;43493;53.098;6.064;2023-02-28T04:51:44;4.90;99.90
57664;DHT22;43493;53.098;6.064;2023-02-28T04:54:09;4.90;99.90
57664;DHT22;43493;53.098;6.064;2023-02-28T04:56:35;4.90;99.90
57664;DHT22;43493;53.098;6.064;2023-02-28T04:59:01;4.90;99.90
57664;DHT22;43493;53.098;6.064;2023-02-28T05:01:29;4.90;99.90
57664;DHT22;43493;53.098;6.064;2023-02-28T05:03:57;4.80;99.90
57664;DHT22;43493;53.098;6.064;2023-02-28T05:06:24;4.80;99.90
57664;DHT22;43493;53.098;6.064;2023-02-28T05:08:51;4.70;99.90
57664;DHT22;43493;53.098;6.064;2023-02-28T05:11:20;4.70;99.90
57664;DHT22;43493;53.098;6.064;2023-02-28T05:13:47;4.70;99.90
57664;DHT22;43493;53.098;6.064;2023-02-28T05:16:13;4.60;99.90
57664;DHT22;43493;53.098;6.064;2023-02-28T05:18:39;4.60;99.90
57664;DHT22;43493;53.098;6.064;2023-02-28T05:21:06;4.60;99.90
57664;DHT22;43493;53.098;6.064;2023-02-28T05:23:32;4.60;99.90
57664;DHT22;43493;53.098;6.064;2023-02-28T05:25:58;4.50;99.90
57664;DHT22;43493;53.098;6.064;2023-02-28T05:28:24;4.50;99.90
57664;DHT22;43493;53.098;6.064;2023-02-28T05:30:49;4.40;99.90
57664;DHT22;43493;53.098;6.064;2023-02-28T05:33:15;4.40;99.90
57664;DHT22;43493;53.098;6.064;2023-02-28T05:35:41;4.40;99.90
57664;DHT22;43493;53.098;6.064;2023-02-28T05:38:10;4.40;99.90
57664;DHT22;43493;53.098;6.064;2023-02-28T05:40:38;4.40;99.90
57664;DHT22;43493;53.098;6.064;2023-02-28T05:43:04;4.30;99.90
57664;DHT22;43493;53.098;6.064;2023-02-28T05:45:30;4.30;99.90
57664;DHT22;43493;53.098;6.064;2023-02-28T05:47:56;4.30;99.90
57664;DHT22;43493;53.098;6.064;2023-02-28T05:50:21;4.30;99.90
57664;DHT22;43493;53.098;6.064;2023-02-28T05:52:52;4.30;99.90
57664;DHT22;43493;53.098;6.064;2023-02-28T05:55:17;4.30;99.90
57664;DHT22;43493;53.098;6.064;2023-02-28T05:57:43;4.30;99.90
57664;DHT22;43493;53.098;6.064;2023-02-28T06:00:10;4.30;99.90
57664;DHT22;43493;53.098;6.064;2023-02-28T06:02:36;4.30;99.90
57664;DHT22;43493;53.098;6.064;2023-02-28T06:05:01;4.30;99.90
57664;DHT22;43493;53.098;6.064;2023-02-28T06:07:27;4.30;99.90
57664;DHT22;43493;53.098;6.064;2023-02-28T06:09:53;4.30;99.90
57664;DHT22;43493;53.098;6.064;2023-02-28T06:12:18;4.30;99.90
57664;DHT22;43493;53.098;6.064;2023-02-28T06:14:44;4.30;99.90
57664;DHT22;43493;53.098;6.064;2023-02-28T06:17:10;4.30;99.90
57664;DHT22;43493;53.098;6.064;2023-02-28T06:19:37;4.20;99.90
57664;DHT22;43493;53.098;6.064;2023-02-28T06:22:04;4.30;99.90
57664;DHT22;43493;53.098;6.064;2023-02-28T06:24:30;4.20;99.90
57664;DHT22;43493;53.098;6.064;2023-02-28T06:26:56;4.30;99.90
57664;DHT22;43493;53.098;6.064;2023-02-28T06:29:24;4.20;99.90
57664;DHT22;43493;53.098;6.064;2023-02-28T06:31:50;4.20;99.90
57664;DHT22;43493;53.098;6.064;2023-02-28T06:34:16;4.20;99.90
57664;DHT22;43493;53.098;6.064;2023-02-28T06:36:42;4.10;99.90
57664;DHT22;43493;53.098;6.064;2023-02-28T06:39:09;4.00;99.90
57664;DHT22;43493;53.098;6.064;2023-02-28T06:41:35;4.00;99.90
57664;DHT22;43493;53.098;6.064;2023-02-28T06:44:08;4.00;99.90
57664;DHT22;43493;53.098;6.064;2023-02-28T06:46:39;3.90;99.90
57664;DHT22;43493;53.098;6.064;2023-02-28T06:49:05;3.80;99.90
57664;DHT22;43493;53.098;6.064;2023-02-28T06:51:34;3.80;99.90
57664;DHT22;43493;53.098;6.064;2023-02-28T06:54:00;3.80;99.90
57664;DHT22;43493;53.098;6.064;2023-02-28T06:56:26;3.80;99.90
57664;DHT22;43493;53.098;6.064;2023-02-28T06:58:52;3.80;99.90
57664;DHT22;43493;53.098;6.064;2023-02-28T07:01:22;3.80;99.90
57664;DHT22;43493;53.098;6.064;2023-02-28T07:03:49;3.80;99.90
57664;DHT22;43493;53.098;6.064;2023-02-28T07:06:27;3.90;99.90
57664;DHT22;43493;53.098;6.064;2023-02-28T07:08:53;3.90;99.90
57664;DHT22;43493;53.098;6.064;2023-02-28T07:11:20;3.80;99.90
57664;DHT22;43493;53.098;6.064;2023-02-28T07:13:48;3.80;99.90
57664;DHT22;43493;53.098;6.064;2023-02-28T07:16:14;3.90;99.90
57664;DHT22;43493;53.098;6.064;2023-02-28T07:18:40;3.80;99.90
57664;DHT22;43493;53.098;6.064;2023-02-28T07:21:08;3.80;99.90
57664;DHT22;43493;53.098;6.064;2023-02-28T07:23:35;3.80;99.90
57664;DHT22;43493;53.098;6.064;2023-02-28T07:26:01;3.80;99.90
57664;DHT22;43493;53.098;6.064;2023-02-28T07:28:27;3.90;99.90
57664;DHT22;43493;53.098;6.064;2023-02-28T07:30:53;3.90;99.90
57664;DHT22;43493;53.098;6.064;2023-02-28T07:33:18;3.80;99.90
57664;DHT22;43493;53.098;6.064;2023-02-28T07:35:44;3.80;99.90
57664;DHT22;43493;53.098;6.064;2023-02-28T07:38:10;3.80;99.90
57664;DHT22;43493;53.098;6.064;2023-02-28T07:40:36;3.90;99.90
57664;DHT22;43493;53.098;6.064;2023-02-28T07:43:02;3.80;99.90
57664;DHT22;43493;53.098;6.064;2023-02-28T07:45:29;3.90;99.90
57664;DHT22;43493;53.098;6.064;2023-02-28T07:47:55;3.90;99.90
57664;DHT22;43493;53.098;6.064;2023-02-28T07:50:22;3.90;99.90
57664;DHT22;43493;53.098;6.064;2023-02-28T07:52:47;3.80;99.90
57664;DHT22;43493;53.098;6.064;2023-02-28T07:55:13;3.90;99.90
57664;DHT22;43493;53.098;6.064;2023-02-28T07:57:40;3.80;99.90
57664;DHT22;43493;53.098;6.064;2023-02-28T08:00:08;3.90;99.90
57664;DHT22;43493;53.098;6.064;2023-02-28T08:02:35;3.90;99.90
57664;DHT22;43493;53.098;6.064;2023-02-28T08:05:01;3.90;99.90
57664;DHT22;43493;53.098;6.064;2023-02-28T08:07:27;3.90;99.90
57664;DHT22;43493;53.098;6.064;2023-02-28T08:09:53;3.90;99.90
57664;DHT22;43493;53.098;6.064;2023-02-28T08:12:19;4.00;99.90
57664;DHT22;43493;53.098;6.064;2023-02-28T08:14:45;4.00;99.90
57664;DHT22;43493;53.098;6.064;2023-02-28T08:17:11;4.00;99.90
57664;DHT22;43493;53.098;6.064;2023-02-28T08:19:38;4.00;99.90
57664;DHT22;43493;53.098;6.064;2023-02-28T08:22:04;4.10;99.90
57664;DHT22;43493;53.098;6.064;2023-02-28T08:24:30;4.10;99.90
57664;DHT22;43493;53.098;6.064;2023-02-28T08:26:56;4.20;99.90
57664;DHT22;43493;53.098;6.064;2023-02-28T08:29:22;4.20;99.90
57664;DHT22;43493;53.098;6.064;2023-02-28T08:31:48;4.10;99.90
57664;DHT22;43493;53.098;6.064;2023-02-28T08:34:15;4.20;99.90
57664;DHT22;43493;53.098;6.064;2023-02-28T08:36:41;4.30;99.90
57664;DHT22;43493;53.098;6.064;2023-02-28T08:39:09;4.30;99.90
57664;DHT22;43493;53.098;6.064;2023-02-28T08:41:35;4.30;99.90
57664;DHT22;43493;53.098;6.064;2023-02-28T08:44:02;4.40;99.90
57664;DHT22;43493;53.098;6.064;2023-02-28T08:46:28;4.40;99.90
57664;DHT22;43493;53.098;6.064;2023-02-28T08:48:55;4.40;99.90
57664;DHT22;43493;53.098;6.064;2023-02-28T08:51:21;4.50;99.90
57664;DHT22;43493;53.098;6.064;2023-02-28T08:53:53;4.50;99.90
57664;DHT22;43493;53.098;6.064;2023-02-28T08:56:19;4.50;99.90
57664;DHT22;43493;53.098;6.064;2023-02-28T08:58:47;4.60;99.90
57664;DHT22;43493;53.098;6.064;2023-02-28T09:01:21;4.70;99.90
57664;DHT22;43493;53.098;6.064;2023-02-28T09:03:49;4.80;99.90
57664;DHT22;43493;53.098;6.064;2023-02-28T09:06:17;4.90;99.90
57664;DHT22;43493;53.098;6.064;2023-02-28T09:08:43;5.00;99.90
57664;DHT22;43493;53.098;6.064;2023-02-28T09:11:10;5.00;99.90
57664;DHT22;43493;53.098;6.064;2023-02-28T09:13:37;5.00;99.90
57664;DHT22;43493;53.098;6.064;2023-02-28T09:16:05;5.00;99.90
57664;DHT22;43493;53.098;6.064;2023-02-28T09:18:31;5.10;99.90
57664;DHT22;43493;53.098;6.064;2023-02-28T09:20:57;5.10;99.90
57664;DHT22;43493;53.098;6.064;2023-02-28T09:23:23;5.10;99.90
57664;DHT22;43493;53.098;6.064;2023-02-28T09:25:54;5.10;99.90
57664;DHT22;43493;53.098;6.064;2023-02-28T09:28:20;5.10;99.90
57664;DHT22;43493;53.098;6.064;2023-02-28T09:30:48;5.10;99.90
57664;DHT22;43493;53.098;6.064;2023-02-28T09:33:14;5.10;99.90
57664;DHT22;43493;53.098;6.064;2023-02-28T09:35:40;5.10;99.90
57664;DHT22;43493;53.098;6.064;2023-02-28T09:38:06;5.20;99.90
57664;DHT22;43493;53.098;6.064;2023-02-28T09:41:19;5.30;99.90
57664;DHT22;43493;53.098;6.064;2023-02-28T09:43:33;5.40;99.90
57664;DHT22;43493;53.098;6.064;2023-02-28T09:46:31;5.60;99.90
57664;DHT22;43493;53.098;6.064;2023-02-28T09:48:54;5.50;99.90
57664;DHT22;43493;53.098;6.064;2023-02-28T09:51:30;5.50;99.90
57664;DHT22;43493;53.098;6.064;2023-02-28T09:53:58;5.40;99.90
57664;DHT22;43493;53.098;6.064;2023-02-28T09:56:32;5.30;99.90
57664;DHT22;43493;53.098;6.064;2023-02-28T09:59:01;5.30;99.90
57664;DHT22;43493;53.098;6.064;2023-02-28T10:04:42;5.50;99.90
57664;DHT22;43493;53.098;6.064;2023-02-28T10:09:59;5.80;99.90
57664;DHT22;43493;53.098;6.064;2023-02-28T10:12:29;5.80;99.90
57664;DHT22;43493;53.098;6.064;2023-02-28T10:14:58;5.80;99.90
57664;DHT22;43493;53.098;6.064;2023-02-28T10:17:27;5.80;99.90
57664;DHT22;43493;53.098;6.064;2023-02-28T10:20:02;5.80;99.90
57664;DHT22;43493;53.098;6.064;2023-02-28T10:25:34;5.70;99.90
57664;DHT22;43493;53.098;6.064;2023-02-28T10:28:12;5.70;99.90
57664;DHT22;43493;53.098;6.064;2023-02-28T10:30:42;5.60;99.90
57664;DHT22;43493;53.098;6.064;2023-02-28T10:33:29;5.60;99.90
57664;DHT22;43493;53.098;6.064;2023-02-28T10:35:57;5.60;99.90
57664;DHT22;43493;53.098;6.064;2023-02-28T10:38:26;5.60;99.90
57664;DHT22;43493;53.098;6.064;2023-02-28T10:43:32;5.50;99.90
57664;DHT22;43493;53.098;6.064;2023-02-28T10:46:09;5.50;99.90
57664;DHT22;43493;53.098;6.064;2023-02-28T10:48:50;5.50;99.90
57664;DHT22;43493;53.098;6.064;2023-02-28T10:51:23;5.50;99.90
57664;DHT22;43493;53.098;6.064;2023-02-28T10:53:53;5.50;99.90
57664;DHT22;43493;53.098;6.064;2023-02-28T10:56:21;5.60;99.90
57664;DHT22;43493;53.098;6.064;2023-02-28T11:01:23;5.70;99.90
57664;DHT22;43493;53.098;6.064;2023-02-28T11:03:50;5.70;99.90
57664;DHT22;43493;53.098;6.064;2023-02-28T11:06:22;5.70;99.90
57664;DHT22;43493;53.098;6.064;2023-02-28T11:08:53;5.70;99.90
57664;DHT22;43493;53.098;6.064;2023-02-28T11:11:21;5.70;99.90
57664;DHT22;43493;53.098;6.064;2023-02-28T11:13:51;5.70;99.90
57664;DHT22;43493;53.098;6.064;2023-02-28T11:16:17;5.70;99.90
57664;DHT22;43493;53.098;6.064;2023-02-28T11:18:55;5.70;99.90
57664;DHT22;43493;53.098;6.064;2023-02-28T11:21:29;5.70;99.90
57664;DHT22;43493;53.098;6.064;2023-02-28T11:26:43;5.70;99.90
57664;DHT22;43493;53.098;6.064;2023-02-28T11:29:30;5.60;99.90
57664;DHT22;43493;53.098;6.064;2023-02-28T11:32:11;5.60;99.90
57664;DHT22;43493;53.098;6.064;2023-02-28T11:34:38;5.70;99.90
57664;DHT22;43493;53.098;6.064;2023-02-28T11:37:13;5.70;99.90
57664;DHT22;43493;53.098;6.064;2023-02-28T11:39:40;5.70;99.90
57664;DHT22;43493;53.098;6.064;2023-02-28T11:50:16;5.70;99.90
57664;DHT22;43493;53.098;6.064;2023-02-28T11:52:53;5.70;99.90
57664;DHT22;43493;53.098;6.064;2023-02-28T11:55:49;5.80;99.90
57664;DHT22;43493;53.098;6.064;2023-02-28T12:01:08;5.80;99.90
57664;DHT22;43493;53.098;6.064;2023-02-28T12:06:30;5.90;99.90
57664;DHT22;43493;53.098;6.064;2023-02-28T12:09:20;5.90;99.90
57664;DHT22;43493;53.098;6.064;2023-02-28T12:15:05;6.00;99.90
57664;DHT22;43493;53.098;6.064;2023-02-28T12:20:49;6.00;99.90
57664;DHT22;43493;53.098;6.064;2023-02-28T12:26:41;6.10;99.90
57664;DHT22;43493;53.098;6.064;2023-02-28T12:29:17;6.10;99.90
57664;DHT22;43493;53.098;6.064;2023-02-28T12:34:27;6.20;99.90
57664;DHT22;43493;53.098;6.064;2023-02-28T12:36:56;6.20;99.90
57664;DHT22;43493;53.098;6.064;2023-02-28T12:39:28;6.20;99.90
57664;DHT22;43493;53.098;6.064;2023-02-28T12:42:05;6.20;99.90
57664;DHT22;43493;53.098;6.064;2023-02-28T12:44:40;6.20;99.90
57664;DHT22;43493;53.098;6.064;2023-02-28T12:47:14;6.20;99.90
57664;DHT22;43493;53.098;6.064;2023-02-28T12:49:56;6.30;99.90
57664;DHT22;43493;53.098;6.064;2023-02-28T12:57:57;6.50;99.90
57664;DHT22;43493;53.098;6.064;2023-02-28T13:00:38;6.60;99.90
57664;DHT22;43493;53.098;6.064;2023-02-28T13:03:29;6.60;99.90
57664;DHT22;43493;53.098;6.064;2023-02-28T13:09:10;6.70;99.90
57664;DHT22;43493;53.098;6.064;2023-02-28T13:11:47;6.80;99.90
57664;DHT22;43493;53.098;6.064;2023-02-28T13:19:34;6.90;99.90
57664;DHT22;43493;53.098;6.064;2023-02-28T13:22:01;7.00;99.90
57664;DHT22;43493;53.098;6.064;2023-02-28T13:34:39;7.20;99.90
57664;DHT22;43493;53.098;6.064;2023-02-28T13:39:59;7.10;99.90
57664;DHT22;43493;53.098;6.064;2023-02-28T13:47:53;7.00;99.90
57664;DHT22;43493;53.098;6.064;2023-02-28T14:04:14;7.10;99.90
57664;DHT22;43493;53.098;6.064;2023-02-28T14:06:49;7.20;99.90
57664;DHT22;43493;53.098;6.064;2023-02-28T14:09:21;7.10;99.90
57664;DHT22;43493;53.098;6.064;2023-02-28T14:11:49;7.20;99.90
57664;DHT22;43493;53.098;6.064;2023-02-28T14:17:14;7.10;99.90
57664;DHT22;43493;53.098;6.064;2023-02-28T14:19:44;7.10;99.90
57664;DHT22;43493;53.098;6.064;2023-02-28T14:31:10;7.10;99.90
57664;DHT22;43493;53.098;6.064;2023-02-28T14:36:46;7.10;99.90
57664;DHT22;43493;53.098;6.064;2023-02-28T14:39:16;7.10;99.90
57664;DHT22;43493;53.098;6.064;2023-02-28T14:41:45;7.10;99.90
57664;DHT22;43493;53.098;6.064;2023-02-28T14:44:25;7.20;99.90
57664;DHT22;43493;53.098;6.064;2023-02-28T14:47:00;7.30;99.90
57664;DHT22;43493;53.098;6.064;2023-02-28T14:49:36;7.30;99.90
57664;DHT22;43493;53.098;6.064;2023-02-28T14:52:14;7.10;99.90
57664;DHT22;43493;53.098;6.064;2023-02-28T14:54:41;7.10;99.90
57664;DHT22;43493;53.098;6.064;2023-02-28T14:57:22;7.00;99.90
57664;DHT22;43493;53.098;6.064;2023-02-28T15:00:16;7.00;99.90
57664;DHT22;43493;53.098;6.064;2023-02-28T15:02:43;7.00;99.90
57664;DHT22;43493;53.098;6.064;2023-02-28T15:07:48;7.00;99.90
57664;DHT22;43493;53.098;6.064;2023-02-28T15:10:27;7.00;99.90
57664;DHT22;43493;53.098;6.064;2023-02-28T15:12:57;7.00;99.90
57664;DHT22;43493;53.098;6.064;2023-02-28T15:15:49;7.00;99.90
57664;DHT22;43493;53.098;6.064;2023-02-28T15:21:06;7.00;99.90
57664;DHT22;43493;53.098;6.064;2023-02-28T15:23:35;7.00;99.90
57664;DHT22;43493;53.098;6.064;2023-02-28T15:26:02;7.00;99.90
57664;DHT22;43493;53.098;6.064;2023-02-28T15:28:28;7.00;99.90
57664;DHT22;43493;53.098;6.064;2023-02-28T15:31:02;7.00;99.90
57664;DHT22;43493;53.098;6.064;2023-02-28T15:33:33;7.00;99.90
57664;DHT22;43493;53.098;6.064;2023-02-28T15:36:15;7.00;99.90
57664;DHT22;43493;53.098;6.064;2023-02-28T15:38:43;7.00;99.90
57664;DHT22;43493;53.098;6.064;2023-02-28T15:41:30;6.90;99.90
57664;DHT22;43493;53.098;6.064;2023-02-28T15:49:28;6.90;99.90
57664;DHT22;43493;53.098;6.064;2023-02-28T15:51:58;6.80;99.90
57664;DHT22;43493;53.098;6.064;2023-02-28T15:54:29;6.80;99.90
57664;DHT22;43493;53.098;6.064;2023-02-28T15:56:57;6.80;99.90
57664;DHT22;43493;53.098;6.064;2023-02-28T15:59:26;6.70;99.90
57664;DHT22;43493;53.098;6.064;2023-02-28T16:04:36;6.70;99.90
57664;DHT22;43493;53.098;6.064;2023-02-28T16:07:04;6.70;99.90
57664;DHT22;43493;53.098;6.064;2023-02-28T16:09:30;6.70;99.90
57664;DHT22;43493;53.098;6.064;2023-02-28T16:12:00;6.70;99.90
57664;DHT22;43493;53.098;6.064;2023-02-28T16:14:30;6.70;99.90
57664;DHT22;43493;53.098;6.064;2023-02-28T16:17:04;6.70;99.90
57664;DHT22;43493;53.098;6.064;2023-02-28T16:19:31;6.70;99.90
57664;DHT22;43493;53.098;6.064;2023-02-28T16:21:57;6.60;99.90
57664;DHT22;43493;53.098;6.064;2023-02-28T16:24:23;6.60;99.90
57664;DHT22;43493;53.098;6.064;2023-02-28T16:26:51;6.60;99.90
57664;DHT22;43493;53.098;6.064;2023-02-28T16:29:24;6.60;99.90
57664;DHT22;43493;53.098;6.064;2023-02-28T16:31:51;6.50;99.90
57664;DHT22;43493;53.098;6.064;2023-02-28T16:34:18;6.50;99.90
57664;DHT22;43493;53.098;6.064;2023-02-28T16:36:47;6.50;99.90
57664;DHT22;43493;53.098;6.064;2023-02-28T16:39:13;6.50;99.90
57664;DHT22;43493;53.098;6.064;2023-02-28T16:41:42;6.50;99.90
57664;DHT22;43493;53.098;6.064;2023-02-28T16:44:13;6.40;99.90
57664;DHT22;43493;53.098;6.064;2023-02-28T16:46:42;6.40;99.90
57664;DHT22;43493;53.098;6.064;2023-02-28T16:49:11;6.40;99.90
57664;DHT22;43493;53.098;6.064;2023-02-28T16:51:38;6.30;99.90
57664;DHT22;43493;53.098;6.064;2023-02-28T16:54:03;6.30;99.90
57664;DHT22;43493;53.098;6.064;2023-02-28T16:56:29;6.30;99.90
57664;DHT22;43493;53.098;6.064;2023-02-28T16:58:59;6.30;99.90
57664;DHT22;43493;53.098;6.064;2023-02-28T17:01:25;6.20;99.90
57664;DHT22;43493;53.098;6.064;2023-02-28T17:03:53;6.20;99.90
57664;DHT22;43493;53.098;6.064;2023-02-28T17:06:37;6.20;99.90
57664;DHT22;43493;53.098;6.064;2023-02-28T17:09:03;6.10;99.90
57664;DHT22;43493;53.098;6.064;2023-02-28T17:11:29;6.10;99.90
57664;DHT22;43493;53.098;6.064;2023-02-28T17:13:55;6.10;99.90
57664;DHT22;43493;53.098;6.064;2023-02-28T17:16:29;6.00;99.90
57664;DHT22;43493;53.098;6.064;2023-02-28T17:18:59;6.00;99.90
57664;DHT22;43493;53.098;6.064;2023-02-28T17:21:25;5.90;99.90
57664;DHT22;43493;53.098;6.064;2023-02-28T17:23:51;5.90;99.90
57664;DHT22;43493;53.098;6.064;2023-02-28T17:26:18;5.90;99.90
57664;DHT22;43493;53.098;6.064;2023-02-28T17:28:48;5.80;99.90
57664;DHT22;43493;53.098;6.064;2023-02-28T17:31:14;5.70;99.90
57664;DHT22;43493;53.098;6.064;2023-02-28T17:33:40;5.70;99.90
57664;DHT22;43493;53.098;6.064;2023-02-28T17:36:08;5.70;99.90
57664;DHT22;43493;53.098;6.064;2023-02-28T17:38:35;5.60;99.90
57664;DHT22;43493;53.098;6.064;2023-02-28T17:41:01;5.60;99.90
57664;DHT22;43493;53.098;6.064;2023-02-28T17:43:27;5.50;99.90
57664;DHT22;43493;53.098;6.064;2023-02-28T17:45:53;5.50;99.90
57664;DHT22;43493;53.098;6.064;2023-02-28T17:48:19;5.50;99.90
57664;DHT22;43493;53.098;6.064;2023-02-28T17:50:45;5.40;99.90
57664;DHT22;43493;53.098;6.064;2023-02-28T17:53:11;5.40;99.90
57664;DHT22;43493;53.098;6.064;2023-02-28T17:55:37;5.40;99.90
57664;DHT22;43493;53.098;6.064;2023-02-28T17:58:03;5.30;99.90
57664;DHT22;43493;53.098;6.064;2023-02-28T18:00:29;5.30;99.90
57664;DHT22;43493;53.098;6.064;2023-02-28T18:02:55;5.20;99.90
57664;DHT22;43493;53.098;6.064;2023-02-28T18:05:21;5.20;99.90
57664;DHT22;43493;53.098;6.064;2023-02-28T18:07:46;5.20;99.90
57664;DHT22;43493;53.098;6.064;2023-02-28T18:10:18;5.10;99.90
57664;DHT22;43493;53.098;6.064;2023-02-28T18:12:48;5.10;99.90
57664;DHT22;43493;53.098;6.064;2023-02-28T18:15:15;5.00;99.90
57664;DHT22;43493;53.098;6.064;2023-02-28T18:17:42;5.00;99.90
57664;DHT22;43493;53.098;6.064;2023-02-28T18:20:10;5.00;99.90
57664;DHT22;43493;53.098;6.064;2023-02-28T18:22:37;5.00;99.90
57664;DHT22;43493;53.098;6.064;2023-02-28T18:25:04;4.90;99.90
57664;DHT22;43493;53.098;6.064;2023-02-28T18:27:30;4.90;99.90
57664;DHT22;43493;53.098;6.064;2023-02-28T18:29:56;4.90;99.90
57664;DHT22;43493;53.098;6.064;2023-02-28T18:32:22;4.80;99.90